sensor_id;sensor_type;location;lat;lon;timestamp;pressure;altitude;pressure_sealevel;temperature;humidity
74524;BME280;63074;44.696;10.358;2022-11-13T00:01:58;101084.06;;;8.52;100.00
74524;BME280;63074;44.696;10.358;2022-11-13T00:04:24;101081.59;;;8.50;100.00
74524;BME280;63074;44.696;10.358;2022-11-13T00:06:49;101079.09;;;8.83;100.00
74524;BME280;63074;44.696;10.358;2022-11-13T00:09:14;101072.59;;;9.05;100.00
74524;BME280;63074;44.696;10.358;2022-11-13T00:11:40;101064.53;;;9.05;100.00
74524;BME280;63074;44.696;10.358;2022-11-13T00:14:05;101056.03;;;8.95;100.00
74524;BME280;63074;44.696;10.358;2022-11-13T00:16:31;101045.31;;;8.95;100.00
74524;BME280;63074;44.696;10.358;2022-11-13T00:18:56;101053.72;;;8.79;100.00
74524;BME280;63074;44.696;10.358;2022-11-13T00:21:24;101052.84;;;8.72;100.00
74524;BME280;63074;44.696;10.358;2022-11-13T11:33:53;100929.94;;;12.94;100.00
74524;BME280;63074;44.696;10.358;2022-11-13T11:42:35;100926.03;;;12.60;100.00
74524;BME280;63074;44.696;10.358;2022-11-13T11:45:21;100937.06;;;12.59;100.00
74524;BME280;63074;44.696;10.358;2022-11-13T11:47:48;100933.75;;;12.57;100.00
74524;BME280;63074;44.696;10.358;2022-11-13T11:50:17;100926.41;;;12.64;100.00
74524;BME280;63074;44.696;10.358;2022-11-13T11:53:03;100905.06;;;13.04;100.00
74524;BME280;63074;44.696;10.358;2022-11-13T12:01:44;100882.72;;;16.81;100.00
74524;BME280;63074;44.696;10.358;2022-11-13T12:18:52;100871.72;;;13.16;100.00
74524;BME280;63074;44.696;10.358;2022-11-13T12:24:17;100855.63;;;17.18;100.00
74524;BME280;63074;44.696;10.358;2022-11-13T12:30:10;100847.44;;;20.46;87.02
74524;BME280;63074;44.696;10.358;2022-11-13T12:35:45;100841.84;;;20.17;85.30
74524;BME280;63074;44.696;10.358;2022-11-13T12:38:36;100849.19;;;22.96;74.44
74524;BME280;63074;44.696;10.358;2022-11-13T12:46:41;100856.56;;;26.73;46.73
74524;BME280;63074;44.696;10.358;2022-11-13T12:52:01;100855.91;;;24.37;51.76
74524;BME280;63074;44.696;10.358;2022-11-13T12:54:33;100850.31;;;24.42;55.01
74524;BME280;63074;44.696;10.358;2022-11-13T12:57:19;100836.00;;;22.61;57.37
74524;BME280;63074;44.696;10.358;2022-11-13T12:59:56;100836.38;;;20.17;67.18
74524;BME280;63074;44.696;10.358;2022-11-13T13:02:36;100838.16;;;22.45;66.75
74524;BME280;63074;44.696;10.358;2022-11-13T13:05:32;100820.97;;;23.42;59.10
74524;BME280;63074;44.696;10.358;2022-11-13T13:16:28;100810.50;;;16.80;98.65
74524;BME280;63074;44.696;10.358;2022-11-13T13:19:06;100799.97;;;20.42;86.30
74524;BME280;63074;44.696;10.358;2022-11-13T13:21:43;100794.13;;;17.92;92.23
74524;BME280;63074;44.696;10.358;2022-11-13T13:24:34;100794.31;;;16.91;96.48
74524;BME280;63074;44.696;10.358;2022-11-13T13:27:14;100800.72;;;16.74;100.00
74524;BME280;63074;44.696;10.358;2022-11-13T13:29:48;100789.88;;;16.52;97.64
74524;BME280;63074;44.696;10.358;2022-11-13T13:32:35;100790.34;;;15.96;100.00
74524;BME280;63074;44.696;10.358;2022-11-13T13:35:27;100789.78;;;15.16;100.00
74524;BME280;63074;44.696;10.358;2022-11-13T13:38:17;100795.19;;;14.83;100.00
74524;BME280;63074;44.696;10.358;2022-11-13T13:46:25;100789.03;;;15.21;100.00
74524;BME280;63074;44.696;10.358;2022-11-13T13:49:00;100794.06;;;15.90;100.00
74524;BME280;63074;44.696;10.358;2022-11-13T13:51:48;100797.84;;;16.10;100.00
74524;BME280;63074;44.696;10.358;2022-11-13T13:54:22;100794.31;;;15.88;100.00
74524;BME280;63074;44.696;10.358;2022-11-13T13:56:50;100794.31;;;15.66;100.00
74524;BME280;63074;44.696;10.358;2022-11-13T13:59:34;100786.03;;;14.10;100.00
74524;BME280;63074;44.696;10.358;2022-11-13T14:02:16;100791.66;;;14.09;100.00
74524;BME280;63074;44.696;10.358;2022-11-13T14:08:00;100785.09;;;14.33;100.00
74524;BME280;63074;44.696;10.358;2022-11-13T14:10:36;100780.50;;;14.34;100.00
74524;BME280;63074;44.696;10.358;2022-11-13T14:13:05;100772.66;;;14.32;100.00
74524;BME280;63074;44.696;10.358;2022-11-13T14:15:36;100776.06;;;14.28;100.00
74524;BME280;63074;44.696;10.358;2022-11-13T14:18:07;100771.47;;;14.28;100.00
74524;BME280;63074;44.696;10.358;2022-11-13T14:20:45;100773.28;;;14.51;100.00
74524;BME280;63074;44.696;10.358;2022-11-13T14:23:23;100772.94;;;15.31;100.00
74524;BME280;63074;44.696;10.358;2022-11-13T14:25:53;100775.50;;;15.04;100.00
74524;BME280;63074;44.696;10.358;2022-11-13T14:28:26;100781.34;;;14.79;100.00
74524;BME280;63074;44.696;10.358;2022-11-13T14:33:34;100782.88;;;14.42;100.00
74524;BME280;63074;44.696;10.358;2022-11-13T14:36:02;100782.31;;;14.28;100.00
74524;BME280;63074;44.696;10.358;2022-11-13T14:38:34;100777.22;;;14.32;100.00
74524;BME280;63074;44.696;10.358;2022-11-13T14:41:05;100778.78;;;14.28;100.00
74524;BME280;63074;44.696;10.358;2022-11-13T14:43:35;100776.91;;;14.28;100.00
74524;BME280;63074;44.696;10.358;2022-11-13T14:46:04;100781.47;;;14.28;100.00
74524;BME280;63074;44.696;10.358;2022-11-13T14:48:34;100771.88;;;14.20;100.00
74524;BME280;63074;44.696;10.358;2022-11-13T14:51:03;100775.03;;;14.17;100.00
74524;BME280;63074;44.696;10.358;2022-11-13T14:53:31;100774.78;;;14.30;100.00
74524;BME280;63074;44.696;10.358;2022-11-13T14:56:07;100774.91;;;14.24;100.00
74524;BME280;63074;44.696;10.358;2022-11-13T14:58:37;100772.44;;;14.22;100.00
74524;BME280;63074;44.696;10.358;2022-11-13T15:01:16;100774.16;;;14.40;100.00
74524;BME280;63074;44.696;10.358;2022-11-13T15:03:48;100769.25;;;14.25;100.00
74524;BME280;63074;44.696;10.358;2022-11-13T15:06:22;100766.28;;;14.10;100.00
74524;BME280;63074;44.696;10.358;2022-11-13T15:08:53;100773.50;;;13.93;100.00
74524;BME280;63074;44.696;10.358;2022-11-13T15:11:26;100772.69;;;13.92;100.00
74524;BME280;63074;44.696;10.358;2022-11-13T15:13:52;100774.72;;;13.73;100.00
74524;BME280;63074;44.696;10.358;2022-11-13T15:16:25;100771.56;;;13.65;100.00
74524;BME280;63074;44.696;10.358;2022-11-13T15:19:18;100765.16;;;13.54;100.00
74524;BME280;63074;44.696;10.358;2022-11-13T15:21:46;100774.91;;;13.43;100.00
74524;BME280;63074;44.696;10.358;2022-11-13T15:24:13;100765.97;;;13.31;100.00
74524;BME280;63074;44.696;10.358;2022-11-13T15:26:39;100772.66;;;13.29;100.00
74524;BME280;63074;44.696;10.358;2022-11-13T15:29:06;100771.63;;;13.18;100.00
74524;BME280;63074;44.696;10.358;2022-11-13T15:31:41;100772.00;;;13.22;100.00
74524;BME280;63074;44.696;10.358;2022-11-13T15:34:13;100765.03;;;13.14;100.00
74524;BME280;63074;44.696;10.358;2022-11-13T15:36:40;100760.09;;;13.11;100.00
74524;BME280;63074;44.696;10.358;2022-11-13T15:39:07;100770.97;;;12.81;100.00
74524;BME280;63074;44.696;10.358;2022-11-13T15:41:34;100764.06;;;12.85;100.00
74524;BME280;63074;44.696;10.358;2022-11-13T15:44:03;100764.53;;;12.82;100.00
74524;BME280;63074;44.696;10.358;2022-11-13T15:46:31;100774.50;;;12.70;100.00
74524;BME280;63074;44.696;10.358;2022-11-13T15:48:58;100778.47;;;12.79;100.00
74524;BME280;63074;44.696;10.358;2022-11-13T15:56:35;100771.44;;;12.78;100.00
74524;BME280;63074;44.696;10.358;2022-11-13T15:59:02;100771.31;;;12.61;100.00
74524;BME280;63074;44.696;10.358;2022-11-13T16:01:28;100774.25;;;12.71;100.00
74524;BME280;63074;44.696;10.358;2022-11-13T16:03:54;100779.41;;;12.73;100.00
74524;BME280;63074;44.696;10.358;2022-11-13T16:06:23;100789.84;;;12.69;100.00
74524;BME280;63074;44.696;10.358;2022-11-13T16:08:49;100788.66;;;12.65;100.00
74524;BME280;63074;44.696;10.358;2022-11-13T16:11:19;100785.75;;;12.67;100.00
74524;BME280;63074;44.696;10.358;2022-11-13T16:13:45;100780.81;;;12.64;100.00
74524;BME280;63074;44.696;10.358;2022-11-13T16:16:22;100789.72;;;12.64;100.00
74524;BME280;63074;44.696;10.358;2022-11-13T16:18:50;100792.28;;;12.59;100.00
74524;BME280;63074;44.696;10.358;2022-11-13T16:21:18;100795.66;;;12.55;100.00
74524;BME280;63074;44.696;10.358;2022-11-13T16:23:45;100788.41;;;12.55;100.00
74524;BME280;63074;44.696;10.358;2022-11-13T16:26:18;100785.13;;;12.53;100.00
74524;BME280;63074;44.696;10.358;2022-11-13T16:28:45;100783.09;;;12.48;100.00
74524;BME280;63074;44.696;10.358;2022-11-13T16:31:11;100786.03;;;12.47;100.00
74524;BME280;63074;44.696;10.358;2022-11-13T16:33:37;100786.38;;;12.50;100.00
74524;BME280;63074;44.696;10.358;2022-11-13T16:36:04;100786.03;;;12.47;100.00
74524;BME280;63074;44.696;10.358;2022-11-13T16:38:33;100788.34;;;12.43;100.00
74524;BME280;63074;44.696;10.358;2022-11-13T16:40:59;100786.47;;;12.44;100.00
74524;BME280;63074;44.696;10.358;2022-11-13T16:43:26;100783.78;;;12.44;100.00
74524;BME280;63074;44.696;10.358;2022-11-13T16:45:52;100780.75;;;12.40;100.00
74524;BME280;63074;44.696;10.358;2022-11-13T16:48:18;100787.78;;;12.41;100.00
74524;BME280;63074;44.696;10.358;2022-11-13T16:50:44;100782.41;;;12.41;100.00
74524;BME280;63074;44.696;10.358;2022-11-13T16:53:11;100786.59;;;12.37;100.00
74524;BME280;63074;44.696;10.358;2022-11-13T16:55:37;100796.56;;;12.37;100.00
74524;BME280;63074;44.696;10.358;2022-11-13T16:58:04;100797.56;;;12.24;100.00
74524;BME280;63074;44.696;10.358;2022-11-13T17:00:30;100798.97;;;12.27;100.00
74524;BME280;63074;44.696;10.358;2022-11-13T17:02:57;100794.63;;;12.26;100.00
74524;BME280;63074;44.696;10.358;2022-11-13T17:05:23;100793.50;;;12.33;100.00
74524;BME280;63074;44.696;10.358;2022-11-13T17:07:53;100794.63;;;12.26;100.00
74524;BME280;63074;44.696;10.358;2022-11-13T17:10:21;100798.50;;;12.30;100.00
74524;BME280;63074;44.696;10.358;2022-11-13T17:12:52;100794.94;;;12.17;100.00
74524;BME280;63074;44.696;10.358;2022-11-13T17:15:19;100795.31;;;12.21;100.00
74524;BME280;63074;44.696;10.358;2022-11-13T17:17:46;100802.44;;;12.15;100.00
74524;BME280;63074;44.696;10.358;2022-11-13T17:20:13;100801.59;;;12.15;100.00
74524;BME280;63074;44.696;10.358;2022-11-13T17:22:42;100794.34;;;12.15;100.00
74524;BME280;63074;44.696;10.358;2022-11-13T17:25:14;100797.63;;;12.17;100.00
74524;BME280;63074;44.696;10.358;2022-11-13T17:27:41;100799.28;;;12.18;100.00
74524;BME280;63074;44.696;10.358;2022-11-13T17:30:09;100803.63;;;12.20;100.00
74524;BME280;63074;44.696;10.358;2022-11-13T17:32:35;100806.75;;;12.16;100.00
74524;BME280;63074;44.696;10.358;2022-11-13T17:35:01;100805.50;;;12.19;100.00
74524;BME280;63074;44.696;10.358;2022-11-13T17:37:27;100809.69;;;12.15;100.00
74524;BME280;63074;44.696;10.358;2022-11-13T17:39:54;100808.84;;;12.14;100.00
74524;BME280;63074;44.696;10.358;2022-11-13T17:42:20;100810.50;;;12.15;100.00
74524;BME280;63074;44.696;10.358;2022-11-13T17:44:46;100816.50;;;12.17;100.00
74524;BME280;63074;44.696;10.358;2022-11-13T17:47:12;100822.44;;;11.90;100.00
74524;BME280;63074;44.696;10.358;2022-11-13T17:49:38;100824.16;;;11.84;100.00
74524;BME280;63074;44.696;10.358;2022-11-13T17:52:23;100828.00;;;11.76;100.00
74524;BME280;63074;44.696;10.358;2022-11-13T17:54:58;100824.66;;;11.74;100.00
74524;BME280;63074;44.696;10.358;2022-11-13T17:57:25;100829.63;;;11.77;100.00
74524;BME280;63074;44.696;10.358;2022-11-13T17:59:51;100825.13;;;11.90;100.00
74524;BME280;63074;44.696;10.358;2022-11-13T18:02:17;100823.69;;;11.87;100.00
74524;BME280;63074;44.696;10.358;2022-11-13T18:04:43;100824.63;;;11.81;100.00
74524;BME280;63074;44.696;10.358;2022-11-13T18:07:10;100824.16;;;11.84;100.00
74524;BME280;63074;44.696;10.358;2022-11-13T18:09:36;100823.03;;;11.92;100.00
74524;BME280;63074;44.696;10.358;2022-11-13T18:12:02;100827.81;;;11.90;100.00
74524;BME280;63074;44.696;10.358;2022-11-13T18:14:28;100820.34;;;11.92;100.00
74524;BME280;63074;44.696;10.358;2022-11-13T18:16:57;100827.59;;;11.91;100.00
74524;BME280;63074;44.696;10.358;2022-11-13T18:19:23;100819.91;;;11.95;100.00
74524;BME280;63074;44.696;10.358;2022-11-13T18:21:49;100819.06;;;11.94;100.00
74524;BME280;63074;44.696;10.358;2022-11-13T18:24:17;100818.25;;;11.94;100.00
74524;BME280;63074;44.696;10.358;2022-11-13T18:26:44;100815.41;;;11.89;100.00
74524;BME280;63074;44.696;10.358;2022-11-13T18:29:10;100825.81;;;11.85;100.00
74524;BME280;63074;44.696;10.358;2022-11-13T18:31:37;100826.28;;;11.82;100.00
74524;BME280;63074;44.696;10.358;2022-11-13T18:34:04;100828.41;;;11.73;100.00
74524;BME280;63074;44.696;10.358;2022-11-13T18:36:31;100838.03;;;11.44;100.00
74524;BME280;63074;44.696;10.358;2022-11-13T18:38:59;100844.38;;;11.50;100.00
74524;BME280;63074;44.696;10.358;2022-11-13T18:41:29;100841.25;;;11.53;100.00
74524;BME280;63074;44.696;10.358;2022-11-13T18:43:55;100835.34;;;11.63;100.00
74524;BME280;63074;44.696;10.358;2022-11-13T18:46:22;100830.50;;;11.71;100.00
74524;BME280;63074;44.696;10.358;2022-11-13T18:48:48;100823.84;;;11.74;100.00
74524;BME280;63074;44.696;10.358;2022-11-13T18:51:19;100829.97;;;10.95;100.00
74524;BME280;63074;44.696;10.358;2022-11-13T18:53:47;100846.34;;;10.93;100.00
74524;BME280;63074;44.696;10.358;2022-11-13T18:56:17;100848.47;;;11.34;100.00
74524;BME280;63074;44.696;10.358;2022-11-13T18:58:45;100850.16;;;10.41;100.00
74524;BME280;63074;44.696;10.358;2022-11-13T19:01:20;100859.84;;;11.11;100.00
74524;BME280;63074;44.696;10.358;2022-11-13T19:03:48;100855.72;;;11.34;100.00
74524;BME280;63074;44.696;10.358;2022-11-13T19:06:16;100867.56;;;11.26;100.00
74524;BME280;63074;44.696;10.358;2022-11-13T19:08:45;100866.22;;;11.17;100.00
74524;BME280;63074;44.696;10.358;2022-11-13T19:11:15;100864.00;;;10.44;100.00
74524;BME280;63074;44.696;10.358;2022-11-13T19:13:43;100860.78;;;10.16;100.00
74524;BME280;63074;44.696;10.358;2022-11-13T19:16:15;100862.72;;;9.96;100.00
74524;BME280;63074;44.696;10.358;2022-11-13T19:18:43;100870.56;;;10.04;100.00
74524;BME280;63074;44.696;10.358;2022-11-13T19:21:12;100877.72;;;10.30;100.00
74524;BME280;63074;44.696;10.358;2022-11-13T19:23:39;100874.81;;;10.18;100.00
74524;BME280;63074;44.696;10.358;2022-11-13T19:26:06;100877.16;;;10.08;100.00
74524;BME280;63074;44.696;10.358;2022-11-13T19:28:34;100880.19;;;10.18;100.00
74524;BME280;63074;44.696;10.358;2022-11-13T19:31:07;100873.44;;;10.02;100.00
74524;BME280;63074;44.696;10.358;2022-11-13T19:33:34;100874.50;;;9.95;100.00
74524;BME280;63074;44.696;10.358;2022-11-13T19:36:06;100875.75;;;9.92;100.00
74524;BME280;63074;44.696;10.358;2022-11-13T19:38:32;100880.09;;;9.87;100.00
74524;BME280;63074;44.696;10.358;2022-11-13T19:40:59;100882.44;;;10.34;100.00
74524;BME280;63074;44.696;10.358;2022-11-13T19:43:25;100880.56;;;10.73;100.00
74524;BME280;63074;44.696;10.358;2022-11-13T19:45:51;100886.50;;;10.88;100.00
74524;BME280;63074;44.696;10.358;2022-11-13T19:48:17;100886.88;;;10.92;100.00
74524;BME280;63074;44.696;10.358;2022-11-13T19:50:43;100885.16;;;10.97;100.00
74524;BME280;63074;44.696;10.358;2022-11-13T19:53:13;100887.41;;;11.00;100.00
74524;BME280;63074;44.696;10.358;2022-11-13T19:55:41;100879.75;;;11.04;100.00
74524;BME280;63074;44.696;10.358;2022-11-13T19:58:07;100889.47;;;11.05;100.00
74524;BME280;63074;44.696;10.358;2022-11-13T20:00:37;100868.34;;;11.08;100.00
74524;BME280;63074;44.696;10.358;2022-11-13T20:03:03;100876.22;;;11.03;100.00
74524;BME280;63074;44.696;10.358;2022-11-13T20:05:32;100877.34;;;10.96;100.00
74524;BME280;63074;44.696;10.358;2022-11-13T20:08:01;100877.28;;;11.02;100.00
74524;BME280;63074;44.696;10.358;2022-11-13T20:10:30;100875.41;;;11.03;100.00
74524;BME280;63074;44.696;10.358;2022-11-13T20:12:57;100874.53;;;11.09;100.00
74524;BME280;63074;44.696;10.358;2022-11-13T20:15:24;100878.88;;;11.10;100.00
74524;BME280;63074;44.696;10.358;2022-11-13T20:17:50;100879.09;;;11.08;100.00
74524;BME280;63074;44.696;10.358;2022-11-13T20:20:17;100881.56;;;11.10;100.00
74524;BME280;63074;44.696;10.358;2022-11-13T20:22:43;100881.78;;;11.08;100.00
74524;BME280;63074;44.696;10.358;2022-11-13T20:25:09;100875.63;;;11.01;100.00
74524;BME280;63074;44.696;10.358;2022-11-13T20:27:44;100881.78;;;11.08;100.00
74524;BME280;63074;44.696;10.358;2022-11-13T20:30:11;100876.19;;;11.10;100.00
74524;BME280;63074;44.696;10.358;2022-11-13T20:33:10;100874.75;;;11.07;100.00
74524;BME280;63074;44.696;10.358;2022-11-13T20:35:40;100870.84;;;11.03;100.00
74524;BME280;63074;44.696;10.358;2022-11-13T20:38:09;100868.78;;;11.05;100.00
74524;BME280;63074;44.696;10.358;2022-11-13T20:40:38;100868.34;;;11.08;100.00
74524;BME280;63074;44.696;10.358;2022-11-13T20:43:04;100869.16;;;11.09;100.00
74524;BME280;63074;44.696;10.358;2022-11-13T20:45:40;100868.34;;;11.08;100.00
74524;BME280;63074;44.696;10.358;2022-11-13T20:48:06;100865.03;;;11.06;100.00
74524;BME280;63074;44.696;10.358;2022-11-13T20:50:35;100867.13;;;11.04;100.00
74524;BME280;63074;44.696;10.358;2022-11-13T20:53:14;100864.34;;;10.93;100.00
74524;BME280;63074;44.696;10.358;2022-11-13T20:55:41;100865.09;;;11.00;100.00
74524;BME280;63074;44.696;10.358;2022-11-13T20:58:10;100864.19;;;10.81;100.00
74524;BME280;63074;44.696;10.358;2022-11-13T21:00:39;100874.50;;;10.84;100.00
74524;BME280;63074;44.696;10.358;2022-11-13T21:03:05;100873.25;;;10.87;100.00
74524;BME280;63074;44.696;10.358;2022-11-13T21:05:40;100873.66;;;10.90;100.00
74524;BME280;63074;44.696;10.358;2022-11-13T21:08:09;100873.44;;;10.92;100.00
74524;BME280;63074;44.696;10.358;2022-11-13T21:10:35;100882.72;;;10.96;100.00
74524;BME280;63074;44.696;10.358;2022-11-13T21:13:05;100880.25;;;10.94;100.00
74524;BME280;63074;44.696;10.358;2022-11-13T21:15:31;100880.84;;;10.96;100.00
74524;BME280;63074;44.696;10.358;2022-11-13T21:18:01;100873.38;;;10.98;100.00
74524;BME280;63074;44.696;10.358;2022-11-13T21:20:28;100883.91;;;11.00;100.00
74524;BME280;63074;44.696;10.358;2022-11-13T21:22:57;100881.91;;;10.95;100.00
74524;BME280;63074;44.696;10.358;2022-11-13T21:25:26;100884.59;;;10.95;100.00
74524;BME280;63074;44.696;10.358;2022-11-13T21:27:55;100889.97;;;10.95;100.00
74524;BME280;63074;44.696;10.358;2022-11-13T21:30:22;100885.03;;;10.92;100.00
74524;BME280;63074;44.696;10.358;2022-11-13T21:32:51;100885.06;;;10.86;100.00
74524;BME280;63074;44.696;10.358;2022-11-13T21:35:26;100884.41;;;10.90;100.00
74524;BME280;63074;44.696;10.358;2022-11-13T21:37:52;100881.28;;;10.93;100.00
74524;BME280;63074;44.696;10.358;2022-11-13T21:40:21;100877.22;;;10.84;100.00
74524;BME280;63074;44.696;10.358;2022-11-13T21:42:51;100875.09;;;10.93;100.00
74524;BME280;63074;44.696;10.358;2022-11-13T21:45:37;100870.75;;;10.92;100.00
74524;BME280;63074;44.696;10.358;2022-11-13T21:48:07;100877.78;;;10.93;100.00
74524;BME280;63074;44.696;10.358;2022-11-13T21:50:33;100872.78;;;10.96;100.00
74524;BME280;63074;44.696;10.358;2022-11-13T21:53:02;100865.16;;;10.93;100.00
74524;BME280;63074;44.696;10.358;2022-11-13T21:55:28;100868.88;;;10.92;100.00
74524;BME280;63074;44.696;10.358;2022-11-13T21:57:57;100851.22;;;10.71;100.00
74524;BME280;63074;44.696;10.358;2022-11-13T22:00:26;100854.09;;;10.76;100.00
74524;BME280;63074;44.696;10.358;2022-11-13T22:02:52;100849.06;;;10.87;100.00
74524;BME280;63074;44.696;10.358;2022-11-13T22:05:21;100850.50;;;10.89;100.00
74524;BME280;63074;44.696;10.358;2022-11-13T22:07:47;100851.94;;;10.92;100.00
74524;BME280;63074;44.696;10.358;2022-11-13T22:10:17;100858.13;;;10.92;100.00
74524;BME280;63074;44.696;10.358;2022-11-13T22:12:46;100851.09;;;10.91;100.00
74524;BME280;63074;44.696;10.358;2022-11-13T22:15:21;100854.00;;;10.90;100.00
74524;BME280;63074;44.696;10.358;2022-11-13T22:18:10;100853.19;;;10.89;100.00
74524;BME280;63074;44.696;10.358;2022-11-13T22:20:39;100852.97;;;10.91;100.00
74524;BME280;63074;44.696;10.358;2022-11-13T22:23:08;100853.69;;;10.73;100.00
74524;BME280;63074;44.696;10.358;2022-11-13T22:25:43;100856.72;;;10.83;100.00
74524;BME280;63074;44.696;10.358;2022-11-13T22:28:18;100857.56;;;10.83;100.00
74524;BME280;63074;44.696;10.358;2022-11-13T22:30:50;100859.38;;;10.90;100.00
74524;BME280;63074;44.696;10.358;2022-11-13T22:33:43;100859.00;;;10.86;100.00
74524;BME280;63074;44.696;10.358;2022-11-13T22:36:15;100855.25;;;10.87;100.00
74524;BME280;63074;44.696;10.358;2022-11-13T22:38:44;100859.41;;;10.83;100.00
74524;BME280;63074;44.696;10.358;2022-11-13T22:41:19;100856.78;;;10.76;100.00
74524;BME280;63074;44.696;10.358;2022-11-13T22:43:48;100856.94;;;10.81;100.00
74524;BME280;63074;44.696;10.358;2022-11-13T22:46:17;100857.81;;;10.75;100.00
74524;BME280;63074;44.696;10.358;2022-11-13T22:48:45;100854.72;;;10.72;100.00
74524;BME280;63074;44.696;10.358;2022-11-13T22:51:20;100854.94;;;10.70;100.00
74524;BME280;63074;44.696;10.358;2022-11-13T22:53:49;100852.03;;;10.72;100.00
74524;BME280;63074;44.696;10.358;2022-11-13T22:56:16;100843.38;;;10.70;100.00
74524;BME280;63074;44.696;10.358;2022-11-13T22:58:43;100841.06;;;10.73;100.00
74524;BME280;63074;44.696;10.358;2022-11-13T23:01:15;100834.47;;;10.69;100.00
74524;BME280;63074;44.696;10.358;2022-11-13T23:03:43;100833.00;;;10.73;100.00
74524;BME280;63074;44.696;10.358;2022-11-13T23:06:12;100827.69;;;10.67;100.00
74524;BME280;63074;44.696;10.358;2022-11-13T23:08:39;100824.41;;;10.65;100.00
74524;BME280;63074;44.696;10.358;2022-11-13T23:11:17;100819.88;;;10.59;100.00
74524;BME280;63074;44.696;10.358;2022-11-13T23:13:54;100823.28;;;10.41;100.00
74524;BME280;63074;44.696;10.358;2022-11-13T23:16:22;100816.50;;;10.38;100.00
74524;BME280;63074;44.696;10.358;2022-11-13T23:18:49;100819.44;;;10.30;100.00
74524;BME280;63074;44.696;10.358;2022-11-13T23:21:16;100822.84;;;9.99;100.00
74524;BME280;63074;44.696;10.358;2022-11-13T23:23:43;100825.47;;;10.19;100.00
74524;BME280;63074;44.696;10.358;2022-11-13T23:26:11;100825.25;;;10.21;100.00
74524;BME280;63074;44.696;10.358;2022-11-13T23:28:37;100826.03;;;10.34;100.00
74524;BME280;63074;44.696;10.358;2022-11-13T23:31:04;100827.06;;;10.33;100.00
74524;BME280;63074;44.696;10.358;2022-11-13T23:33:30;100822.31;;;10.35;100.00
74524;BME280;63074;44.696;10.358;2022-11-13T23:35:57;100828.66;;;10.41;100.00
74524;BME280;63074;44.696;10.358;2022-11-13T23:38:23;100824.56;;;10.38;100.00
74524;BME280;63074;44.696;10.358;2022-11-13T23:40:57;100816.25;;;10.40;100.00
74524;BME280;63074;44.696;10.358;2022-11-13T23:43:25;100818.78;;;10.35;100.00
74524;BME280;63074;44.696;10.358;2022-11-13T23:45:51;100822.13;;;10.30;100.00
74524;BME280;63074;44.696;10.358;2022-11-13T23:48:18;100821.09;;;10.31;100.00
74524;BME280;63074;44.696;10.358;2022-11-13T23:50:44;100824.63;;;10.25;100.00
74524;BME280;63074;44.696;10.358;2022-11-13T23:53:11;100826.75;;;10.10;100.00
74524;BME280;63074;44.696;10.358;2022-11-13T23:55:38;100826.75;;;10.10;100.00
74524;BME280;63074;44.696;10.358;2022-11-13T23:58:08;100834.13;;;10.14;100.00
